createdAt,value
2023-04-15T00:00:28.050Z,72.9626
2023-04-15T00:01:28.607Z,71.9317
2023-04-15T00:02:29.258Z,72.0650
2023-04-15T00:03:30.087Z,72.1441
2023-04-15T00:04:30.983Z,72.4238
2023-04-15T00:05:31.538Z,71.8307
2023-04-15T00:06:32.100Z,70.8009
2023-04-15T00:07:32.637Z,71.1114
2023-04-15T00:08:33.198Z,71.2474
2023-04-15T00:09:34.308Z,70.9881
2023-04-15T00:10:34.833Z,71.2293
2023-04-15T00:11:35.366Z,71.4199
2023-04-15T00:12:36.064Z,71.0774
2023-04-15T00:13:36.569Z,71.9468
2023-04-15T00:14:37.147Z,71.7790
2023-04-15T00:15:37.714Z,71.5821
2023-04-15T00:16:38.318Z,71.7680
2023-04-15T00:17:38.905Z,72.1155
2023-04-15T00:18:39.466Z,72.7560
2023-04-15T00:19:40.294Z,72.5235
2023-04-15T00:20:40.814Z,72.3585
2023-04-15T00:21:41.333Z,72.0781
2023-04-15T00:22:41.891Z,72.2876
2023-04-15T00:23:42.446Z,72.5769
2023-04-15T00:24:43.256Z,73.9710
2023-04-15T00:25:43.851Z,74.3365
2023-04-15T00:26:44.375Z,74.1545
2023-04-15T00:27:44.945Z,73.6907
2023-04-15T00:28:45.514Z,73.8789
2023-04-15T00:29:46.311Z,74.1529
2023-04-15T00:30:46.944Z,74.0948
2023-04-15T00:31:47.471Z,73.8567
2023-04-15T00:32:48.086Z,73.7215
2023-04-15T00:33:48.624Z,74.4946
2023-04-15T00:34:49.156Z,75.1296
2023-04-15T00:35:49.681Z,74.7121
2023-04-15T00:36:50.248Z,74.5738
2023-04-15T00:37:50.806Z,74.6172
2023-04-15T00:38:51.388Z,74.0732
2023-04-15T00:39:52.012Z,73.9171
2023-04-15T00:40:52.558Z,74.0871
2023-04-15T00:41:53.129Z,74.2749
2023-04-15T00:42:53.666Z,74.0142
2023-04-15T00:43:54.212Z,74.1836
2023-04-15T00:44:54.781Z,73.9676
2023-04-15T00:45:55.440Z,73.8317
2023-04-15T00:46:56.315Z,73.6022
2023-04-15T00:47:56.934Z,73.2697
2023-04-15T00:48:57.836Z,72.9287
2023-04-15T00:49:58.406Z,72.6884
2023-04-15T00:50:58.973Z,72.3719
2023-04-15T00:51:59.728Z,72.4069
2023-04-15T00:53:00.313Z,72.1435
2023-04-15T00:54:00.850Z,71.9519
2023-04-15T00:55:01.445Z,71.7215
2023-04-15T00:56:02.011Z,71.9388
2023-04-15T00:57:02.667Z,72.2520
2023-04-15T00:59:06.310Z,72.2749
2023-04-15T01:00:06.921Z,72.3745
2023-04-15T01:01:09.115Z,72.0227
2023-04-15T01:02:09.749Z,71.7691
2023-04-15T01:07:13.785Z,71.7586
2023-04-15T01:10:53.283Z,71.2808
2023-04-15T01:11:47.022Z,71.6825
2023-04-15T01:12:47.577Z,71.8299
2023-04-15T01:13:48.294Z,72.0939
2023-04-15T01:14:48.382Z,72.3543
2023-04-15T01:15:49.021Z,72.2543
2023-04-15T01:16:49.829Z,72.4463
2023-04-15T01:17:50.414Z,72.2299
2023-04-15T01:18:50.947Z,72.7660
2023-04-15T01:19:51.501Z,73.1276
2023-04-15T01:20:52.034Z,73.4752
2023-04-15T01:21:52.697Z,73.7389
2023-04-15T01:22:53.180Z,73.9708
2023-04-15T01:23:53.734Z,73.9020
2023-04-15T01:24:54.473Z,73.7952
2023-04-15T01:25:55.019Z,73.8658
2023-04-15T01:26:55.604Z,73.8650
2023-04-15T01:28:10.865Z,73.9135
2023-04-15T01:28:57.291Z,74.0213
2023-04-15T01:29:57.891Z,74.3226
2023-04-15T01:30:58.391Z,74.0286
2023-04-15T01:31:59.052Z,73.3557
2023-04-15T01:32:59.640Z,73.8343
2023-04-15T01:34:00.207Z,74.1635
2023-04-15T01:35:00.717Z,74.3104
2023-04-15T01:36:01.249Z,74.2246
2023-04-15T01:37:01.881Z,74.1735
2023-04-15T01:38:02.461Z,74.0760
2023-04-15T01:39:03.099Z,74.0371
2023-04-15T01:40:03.727Z,73.9957
2023-04-15T01:41:04.301Z,74.0445
2023-04-15T01:42:04.827Z,74.0160
2023-04-15T01:43:05.398Z,74.2518
2023-04-15T01:44:05.929Z,74.6172
2023-04-15T01:45:06.468Z,74.6701
2023-04-15T01:46:06.998Z,74.6455
2023-04-15T01:47:07.546Z,75.0169
2023-04-15T01:48:08.138Z,74.8605
2023-04-15T01:49:08.937Z,74.9613
2023-04-15T01:50:09.462Z,74.6973
2023-04-15T01:51:10.043Z,75.0314
2023-04-15T01:52:10.583Z,75.0811
2023-04-15T01:53:11.154Z,75.1740
2023-04-15T01:54:12.300Z,76.0204
2023-04-15T01:55:12.858Z,76.3542
2023-04-15T01:56:15.283Z,76.1688
2023-04-15T01:57:15.104Z,76.5932
2023-04-15T01:58:15.592Z,76.7031
2023-04-15T01:59:16.326Z,76.6514
2023-04-15T02:00:16.844Z,76.5367
2023-04-15T02:01:17.431Z,76.3847
2023-04-15T02:02:17.987Z,76.6046
2023-04-15T02:03:18.640Z,76.1562
2023-04-15T02:04:20.768Z,76.1460
2023-04-15T02:05:24.807Z,76.0421
2023-04-15T02:06:25.359Z,76.0692
2023-04-15T02:07:25.884Z,76.1638
2023-04-15T02:08:26.420Z,75.9915
2023-04-15T02:09:26.965Z,76.0349
2023-04-15T02:10:27.539Z,76.1436
2023-04-15T02:11:28.301Z,76.2772
2023-04-15T02:12:28.809Z,76.6196
2023-04-15T02:13:29.356Z,76.4365
2023-04-15T02:14:29.858Z,76.4838
2023-04-15T02:15:30.381Z,76.4606
2023-04-15T02:16:30.983Z,76.3921
2023-04-15T02:17:31.526Z,76.6287
2023-04-15T02:18:32.032Z,76.6818
2023-04-15T02:19:32.556Z,76.2003
2023-04-15T02:20:33.089Z,76.3772
2023-04-15T02:21:34.258Z,76.8007
2023-04-15T02:22:34.877Z,76.8310
2023-04-15T02:23:35.438Z,76.8146
2023-04-15T02:24:35.931Z,76.6643
2023-04-15T02:25:36.453Z,76.6568
2023-04-15T02:26:37.013Z,76.5974
2023-04-15T02:27:37.546Z,76.7114
2023-04-15T02:28:38.077Z,76.4674
2023-04-15T02:29:38.665Z,76.6869
2023-04-15T02:30:39.195Z,76.9744
2023-04-15T02:31:40.015Z,76.9655
2023-04-15T02:32:40.594Z,76.6173
2023-04-15T02:33:41.105Z,76.6646
2023-04-15T02:34:41.660Z,76.5971
2023-04-15T02:35:42.233Z,76.6712
2023-04-15T02:36:42.807Z,76.8013
2023-04-15T02:37:43.434Z,76.4355
2023-04-15T02:38:44.055Z,75.5015
2023-04-15T02:39:44.582Z,75.4382
2023-04-15T02:40:45.142Z,75.1581
2023-04-15T02:41:45.977Z,75.0407
2023-04-15T02:42:46.581Z,75.0539
2023-04-15T02:43:47.112Z,75.2956
2023-04-15T02:44:47.680Z,75.4069
2023-04-15T02:45:48.398Z,75.7883
2023-04-15T02:46:49.094Z,76.0640
2023-04-15T02:47:49.707Z,76.2417
2023-04-15T02:48:50.485Z,76.2670
2023-04-15T02:49:51.002Z,76.6388
2023-04-15T02:50:52.048Z,76.7116
2023-04-15T02:51:52.857Z,76.7158
2023-04-15T02:52:53.385Z,76.8941
2023-04-15T02:53:53.973Z,77.1318
2023-04-15T02:54:54.530Z,77.1353
2023-04-15T02:55:55.065Z,77.1988
2023-04-15T02:56:55.814Z,77.1805
2023-04-15T02:57:56.365Z,77.3310
2023-04-15T02:58:56.960Z,77.4666
2023-04-15T02:59:57.454Z,77.4548
2023-04-15T03:00:57.998Z,76.8695
2023-04-15T03:01:58.549Z,77.1997
2023-04-15T03:02:59.215Z,77.2563
2023-04-15T03:03:59.904Z,77.3676
2023-04-15T03:05:00.425Z,77.1597
2023-04-15T03:06:00.943Z,77.0682
2023-04-15T03:07:01.487Z,77.2886
2023-04-15T03:08:02.032Z,77.2160
2023-04-15T03:09:02.731Z,77.1710
2023-04-15T03:10:03.324Z,77.2536
2023-04-15T03:11:03.895Z,77.4934
2023-04-15T03:12:04.421Z,77.6699
2023-04-15T03:13:04.986Z,77.8573
2023-04-15T03:14:05.547Z,78.0251
2023-04-15T03:15:06.083Z,78.2186
2023-04-15T03:16:06.718Z,78.2776
2023-04-15T03:17:07.275Z,78.1586
2023-04-15T03:18:07.928Z,77.8870
2023-04-15T03:19:08.484Z,77.8951
2023-04-15T03:20:09.061Z,77.6896
2023-04-15T03:21:09.563Z,77.6472
2023-04-15T03:22:10.122Z,77.5223
2023-04-15T03:23:10.650Z,77.4804
2023-04-15T03:24:11.219Z,77.4893
2023-04-15T03:25:11.748Z,77.3859
2023-04-15T03:26:12.300Z,77.2573
2023-04-15T03:27:12.804Z,77.1370
2023-04-15T03:28:13.345Z,76.7725
2023-04-15T03:29:15.424Z,76.6813
2023-04-15T03:30:15.935Z,76.7222
2023-04-15T03:31:16.828Z,76.4755
2023-04-15T03:32:17.339Z,76.4996
2023-04-15T03:33:17.890Z,76.4339
2023-04-15T03:34:18.442Z,76.6386
2023-04-15T03:35:19.012Z,76.7970
2023-04-15T03:36:19.541Z,76.9607
2023-04-15T03:37:20.054Z,76.6664
2023-04-15T03:38:20.621Z,76.8669
2023-04-15T03:39:21.174Z,76.4741
2023-04-15T03:40:21.706Z,76.5396
2023-04-15T03:41:22.500Z,76.6521
2023-04-15T03:42:23.003Z,76.7182
2023-04-15T03:43:23.574Z,76.7864
2023-04-15T03:44:24.129Z,76.6783
2023-04-15T03:45:24.690Z,76.7036
2023-04-15T03:46:25.487Z,76.6630
2023-04-15T03:47:25.991Z,76.6383
2023-04-15T03:48:26.516Z,76.8493
2023-04-15T03:49:27.076Z,77.1418
2023-04-15T03:50:27.593Z,77.2719
2023-04-15T03:51:28.135Z,77.1661
2023-04-15T03:52:28.697Z,77.4427
2023-04-15T03:53:29.288Z,77.3556
2023-04-15T03:54:29.833Z,77.5385
2023-04-15T03:55:30.361Z,77.7554
2023-04-15T03:56:31.126Z,77.8790
2023-04-15T03:57:31.692Z,77.9508
2023-04-15T03:58:32.282Z,78.0964
2023-04-15T03:59:32.850Z,78.1425
2023-04-15T04:00:33.401Z,78.2729
2023-04-15T04:01:34.021Z,78.4184
2023-04-15T04:02:34.612Z,78.4044
2023-04-15T04:03:35.357Z,78.4265
2023-04-15T04:04:36.056Z,78.4788
2023-04-15T04:05:36.572Z,78.3533
2023-04-15T04:06:37.109Z,78.3607
2023-04-15T04:07:37.652Z,78.5481
2023-04-15T04:08:38.283Z,78.6586
2023-04-15T04:09:38.809Z,78.8120
2023-04-15T04:10:39.402Z,78.6507
2023-04-15T04:11:40.262Z,78.7208
2023-04-15T04:12:40.769Z,78.7723
2023-04-15T04:13:41.394Z,78.9170
2023-04-15T04:14:41.934Z,78.7579
2023-04-15T04:15:42.480Z,78.5684
2023-04-15T04:16:44.886Z,78.4419
2023-04-15T04:17:45.406Z,78.3244
2023-04-15T04:18:45.984Z,78.2497
2023-04-15T04:19:46.554Z,77.8557
2023-04-15T04:20:47.102Z,77.7839
2023-04-15T04:21:47.872Z,78.1153
2023-04-15T04:22:48.427Z,78.1160
2023-04-15T04:23:49.017Z,78.1079
2023-04-15T04:24:49.538Z,77.9239
2023-04-15T04:25:50.076Z,77.7365
2023-04-15T04:26:50.609Z,77.4006
2023-04-15T04:27:51.172Z,77.3659
2023-04-15T04:28:51.918Z,77.6823
2023-04-15T04:29:52.478Z,78.0669
2023-04-15T04:30:52.997Z,77.9889
2023-04-15T04:31:53.630Z,78.1595
2023-04-15T04:32:54.191Z,78.0118
2023-04-15T04:33:54.718Z,77.5188
2023-04-15T04:34:55.246Z,77.3157
2023-04-15T04:35:55.778Z,77.3281
2023-04-15T04:36:56.353Z,77.5070
2023-04-15T04:37:56.907Z,77.3842
2023-04-15T04:38:57.441Z,76.5898
2023-04-15T04:39:57.957Z,76.2899
2023-04-15T04:40:58.463Z,76.2065
2023-04-15T04:41:59.244Z,76.2258
2023-04-15T04:42:59.807Z,75.8842
2023-04-15T04:44:00.353Z,75.8943
2023-04-15T04:45:00.892Z,75.6149
2023-04-15T04:46:01.481Z,75.8177
2023-04-15T04:47:02.072Z,76.1001
2023-04-15T04:48:02.759Z,76.0924
2023-04-15T04:49:03.770Z,75.7688
2023-04-15T04:50:04.359Z,75.8165
2023-04-15T04:51:04.910Z,76.0599
2023-04-15T04:52:05.444Z,75.9778
2023-04-15T04:53:05.974Z,76.1281
2023-04-15T04:54:06.787Z,75.9384
2023-04-15T04:55:07.337Z,75.3596
2023-04-15T04:56:07.872Z,75.2371
2023-04-15T04:57:08.423Z,74.9867
2023-04-15T04:58:09.008Z,75.3009
2023-04-15T04:59:09.557Z,75.5348
2023-04-15T05:00:10.142Z,75.2782
2023-04-15T05:01:10.781Z,74.7188
2023-04-15T05:02:11.341Z,74.5964
2023-04-15T05:03:12.148Z,74.5348
2023-04-15T05:04:13.182Z,74.8778
2023-04-15T05:05:13.768Z,75.1064
2023-04-15T05:06:14.320Z,75.2022
2023-04-15T05:07:14.898Z,75.2711
2023-04-15T05:08:15.507Z,75.4110
2023-04-15T05:09:16.378Z,75.6123
2023-04-15T05:10:16.957Z,75.7339
2023-04-15T05:11:17.467Z,75.7019
2023-04-15T05:12:17.988Z,75.8162
2023-04-15T05:13:18.545Z,75.9938
2023-04-15T05:14:19.138Z,76.0497
2023-04-15T05:15:19.679Z,76.1815
2023-04-15T05:16:20.295Z,76.2082
2023-04-15T05:17:20.903Z,75.9020
2023-04-15T05:18:21.447Z,75.8757
2023-04-15T05:19:22.012Z,75.5698
2023-04-15T05:20:22.547Z,75.3672
2023-04-15T05:21:23.079Z,75.6475
2023-04-15T05:22:23.634Z,75.7515
2023-04-15T05:23:24.517Z,75.7614
2023-04-15T05:24:25.066Z,75.7181
2023-04-15T05:25:25.584Z,75.6872
2023-04-15T05:26:26.143Z,75.6672
2023-04-15T05:27:26.725Z,75.6934
2023-04-15T05:28:27.271Z,75.6283
2023-04-15T05:29:27.817Z,75.6163
2023-04-15T05:30:28.348Z,75.3280
2023-04-15T05:31:29.209Z,75.2018
2023-04-15T05:32:29.840Z,75.3022
2023-04-15T05:33:30.416Z,75.4246
2023-04-15T05:34:31.035Z,75.6829
2023-04-15T05:35:31.603Z,75.9892
2023-04-15T05:36:32.189Z,75.7723
2023-04-15T05:37:32.764Z,75.6339
2023-04-15T05:38:33.556Z,75.0133
2023-04-15T05:39:34.163Z,74.8138
2023-04-15T05:40:34.755Z,74.4864
2023-04-15T05:41:35.336Z,74.4647
2023-04-15T05:42:35.899Z,74.6354
2023-04-15T05:43:36.521Z,74.9309
2023-04-15T05:44:37.153Z,74.5993
2023-04-15T05:45:37.729Z,74.3982
2023-04-15T05:46:38.583Z,74.2987
2023-04-15T05:47:39.259Z,74.5292
2023-04-15T05:48:39.895Z,74.5489
2023-04-15T05:49:40.492Z,74.2916
2023-04-15T05:50:41.071Z,73.9073
2023-04-15T05:51:41.733Z,73.6877
2023-04-15T05:52:42.277Z,73.5714
2023-04-15T05:53:42.851Z,73.1850
2023-04-15T05:54:43.438Z,73.0090
2023-04-15T05:55:44.040Z,73.3895
2023-04-15T05:56:44.617Z,73.7820
2023-04-15T05:57:45.227Z,73.5080
2023-04-15T05:58:46.017Z,73.3590
2023-04-15T05:59:46.562Z,73.4231
2023-04-15T06:00:47.149Z,73.1610
2023-04-15T06:01:47.981Z,73.1457
2023-04-15T06:02:48.661Z,73.3167
2023-04-15T06:03:49.445Z,73.7601
2023-04-15T06:04:50.186Z,73.8644
2023-04-15T06:05:50.688Z,74.0274
2023-04-15T06:06:51.256Z,74.2175
2023-04-15T06:07:51.823Z,74.0967
2023-04-15T06:08:52.458Z,73.8926
2023-04-15T06:09:53.040Z,73.6243
2023-04-15T06:10:53.622Z,73.3255
2023-04-15T06:11:54.310Z,72.8448
2023-04-15T06:12:54.838Z,72.5531
2023-04-15T06:13:55.414Z,72.1522
2023-04-15T06:14:56.022Z,71.2026
2023-04-15T06:15:56.605Z,70.7939
2023-04-15T06:16:57.247Z,71.5540
2023-04-15T06:17:57.830Z,70.8776
2023-04-15T06:18:58.436Z,70.5733
2023-04-15T06:19:59.016Z,70.3795
2023-04-15T06:20:59.622Z,71.1717
2023-04-15T06:22:00.228Z,71.3515
2023-04-15T06:23:00.823Z,71.2919
2023-04-15T06:24:01.473Z,70.8416
2023-04-15T06:25:02.116Z,70.7522
2023-04-15T06:26:02.712Z,69.7848
2023-04-15T06:27:03.312Z,69.3810
2023-04-15T06:28:03.898Z,69.1595
2023-04-15T06:29:04.483Z,69.0785
2023-04-15T06:30:05.088Z,69.0650
2023-04-15T06:31:07.269Z,68.6871
2023-04-15T06:32:07.827Z,68.7915
2023-04-15T06:33:08.467Z,68.6257
2023-04-15T06:34:09.105Z,68.2736
2023-04-15T06:35:09.698Z,67.5077
2023-04-15T06:36:10.355Z,67.0073
2023-04-15T06:37:10.904Z,66.9991
2023-04-15T06:38:11.503Z,66.8220
2023-04-15T06:39:12.079Z,66.7000
2023-04-15T06:40:12.675Z,66.9052
2023-04-15T06:41:13.256Z,67.7894
2023-04-15T06:42:13.848Z,67.7290
2023-04-15T06:43:14.477Z,67.2839
2023-04-15T06:44:15.080Z,66.7584
2023-04-15T06:45:15.701Z,66.8592
2023-04-15T06:46:16.368Z,67.0167
2023-04-15T06:47:17.017Z,67.5102
2023-04-15T06:48:17.629Z,67.4166
2023-04-15T06:49:18.237Z,67.5144
2023-04-15T06:50:18.866Z,67.7495
2023-04-15T06:51:19.457Z,68.0062
2023-04-15T06:52:20.074Z,68.1184
2023-04-15T06:53:20.624Z,69.1985
2023-04-15T06:54:21.234Z,68.8397
2023-04-15T06:55:21.828Z,68.3401
2023-04-15T06:56:22.408Z,68.3188
2023-04-15T06:57:23.017Z,69.0475
2023-04-15T06:58:23.571Z,68.8722
2023-04-15T06:59:24.145Z,69.5594
2023-04-15T07:00:24.779Z,69.1972
2023-04-15T07:01:25.390Z,68.4785
2023-04-15T07:02:26.127Z,69.3456
2023-04-15T07:03:26.731Z,69.2295
2023-04-15T07:04:27.335Z,68.8070
2023-04-15T07:05:27.985Z,69.0594
2023-04-15T07:06:28.625Z,68.4563
2023-04-15T07:07:29.191Z,68.2460
2023-04-15T07:08:30.025Z,68.5855
2023-04-15T07:09:30.595Z,68.2157
2023-04-15T07:10:31.190Z,67.2128
2023-04-15T07:11:31.789Z,68.2408
2023-04-15T07:12:32.365Z,68.1535
2023-04-15T07:13:32.936Z,67.7988
2023-04-15T07:14:33.520Z,67.0674
2023-04-15T07:15:34.123Z,67.0631
2023-04-15T07:16:34.770Z,67.0831
2023-04-15T07:17:35.411Z,67.6770
2023-04-15T07:18:35.993Z,68.2839
2023-04-15T07:19:36.590Z,69.3536
2023-04-15T07:20:37.232Z,69.5609
2023-04-15T07:21:38.928Z,69.1046
2023-04-15T07:22:40.522Z,69.2331
2023-04-15T07:23:41.347Z,69.1913
2023-04-15T07:24:41.922Z,69.8913
2023-04-15T07:25:42.541Z,69.9675
2023-04-15T07:26:43.105Z,69.5898
2023-04-15T07:27:43.691Z,69.5847
2023-04-15T07:28:44.307Z,69.6567
2023-04-15T07:29:44.902Z,69.9757
2023-04-15T07:30:45.499Z,70.4080
2023-04-15T07:31:46.119Z,71.1235
2023-04-15T07:32:46.758Z,72.2464
2023-04-15T07:33:47.303Z,71.6072
2023-04-15T07:34:47.908Z,72.1456
2023-04-15T07:35:48.530Z,73.0143
2023-04-15T07:36:49.116Z,73.5488
2023-04-15T07:37:49.912Z,73.2715
2023-04-15T07:38:50.495Z,72.7095
2023-04-15T07:39:51.124Z,72.3391
2023-04-15T07:40:51.865Z,74.3533
2023-04-15T07:41:52.438Z,76.3332
2023-04-15T07:42:53.009Z,76.5205
2023-04-15T07:43:53.685Z,76.8630
2023-04-15T07:44:54.259Z,76.8012
2023-04-15T07:45:55.114Z,77.0270
2023-04-15T07:46:55.659Z,76.2023
2023-04-15T07:47:56.381Z,76.2693
2023-04-15T07:48:56.986Z,75.6385
2023-04-15T07:49:57.616Z,74.8145
2023-04-15T07:50:58.226Z,74.8927
2023-04-15T07:51:58.826Z,76.1400
2023-04-15T07:52:59.665Z,76.8198
2023-04-15T07:54:00.241Z,76.4998
2023-04-15T07:55:00.874Z,74.7759
2023-04-15T07:56:01.733Z,74.4866
2023-04-15T07:57:02.330Z,74.9251
2023-04-15T07:58:03.041Z,74.4779
2023-04-15T07:59:03.805Z,73.7486
2023-04-15T08:00:04.566Z,73.1885
2023-04-15T08:01:05.171Z,72.8117
2023-04-15T08:02:05.932Z,74.0757
2023-04-15T08:03:06.573Z,73.9964
2023-04-15T08:04:07.377Z,74.4979
2023-04-15T08:05:07.982Z,75.7416
2023-04-15T08:06:08.577Z,76.6676
2023-04-15T08:07:09.157Z,76.8925
2023-04-15T08:08:09.751Z,75.7855
2023-04-15T08:09:10.357Z,75.7437
2023-04-15T08:10:11.112Z,74.9161
2023-04-15T08:11:11.921Z,75.3701
2023-04-15T08:12:12.505Z,74.7341
2023-04-15T08:13:13.106Z,73.7651
2023-04-15T08:14:13.689Z,73.7539
2023-04-15T08:15:14.296Z,73.4517
2023-04-15T08:16:14.866Z,72.8667
2023-04-15T08:17:15.627Z,71.5635
2023-04-15T08:18:16.277Z,71.6489
2023-04-15T08:19:16.872Z,71.1847
2023-04-15T08:20:17.503Z,72.5742
2023-04-15T08:21:18.165Z,74.2879
2023-04-15T08:22:20.105Z,74.4797
2023-04-15T08:23:22.175Z,74.5970
2023-04-15T08:24:22.818Z,74.2635
2023-04-15T08:25:23.430Z,74.2622
2023-04-15T08:26:24.022Z,74.0295
2023-04-15T08:27:24.608Z,73.5981
2023-04-15T08:28:25.199Z,73.2975
2023-04-15T08:29:25.838Z,72.6297
2023-04-15T08:30:26.666Z,70.2415
2023-04-15T08:31:27.403Z,69.0423
2023-04-15T08:32:27.985Z,68.8701
2023-04-15T08:33:28.904Z,68.8729
2023-04-15T08:34:29.484Z,69.0718
2023-04-15T08:35:30.158Z,68.6764
2023-04-15T08:36:30.759Z,68.0843
2023-04-15T08:37:31.551Z,67.8219
2023-04-15T08:38:32.167Z,68.0792
2023-04-15T08:39:32.835Z,67.4403
2023-04-15T08:40:33.689Z,68.9781
2023-04-15T08:41:34.275Z,69.8446
2023-04-15T08:42:34.901Z,70.6719
2023-04-15T08:43:35.526Z,70.8236
2023-04-15T08:44:36.102Z,70.8635
2023-04-15T08:45:36.692Z,70.7640
2023-04-15T08:46:37.371Z,70.4163
2023-04-15T08:47:38.204Z,69.4503
2023-04-15T08:48:38.817Z,68.7037
2023-04-15T08:49:39.481Z,67.9358
2023-04-15T08:50:40.124Z,68.2604
2023-04-15T08:51:40.731Z,66.9511
2023-04-15T08:52:41.555Z,67.5782
2023-04-15T08:53:42.179Z,67.7937
2023-04-15T08:54:42.779Z,67.1985
2023-04-15T08:55:43.567Z,65.7762
2023-04-15T08:56:44.379Z,65.6869
2023-04-15T08:57:44.953Z,66.2636
2023-04-15T08:58:45.508Z,65.2057
2023-04-15T08:59:46.086Z,64.7887
2023-04-15T09:00:46.760Z,64.3580
2023-04-15T09:01:47.445Z,64.4668
2023-04-15T09:02:48.152Z,65.4414
2023-04-15T09:03:48.852Z,67.7146
2023-04-15T09:04:49.537Z,69.2972
2023-04-15T09:05:51.461Z,70.7235
2023-04-15T09:06:50.227Z,71.6721
2023-04-15T09:07:50.858Z,71.0787
2023-04-15T09:08:51.385Z,71.6501
2023-04-15T09:09:51.949Z,72.2952
2023-04-15T09:10:52.559Z,72.3037
2023-04-15T09:11:53.158Z,73.6764
2023-04-15T09:12:53.769Z,74.1204
2023-04-15T09:13:54.357Z,73.9292
2023-04-15T09:14:54.932Z,73.1868
2023-04-15T09:15:55.497Z,73.3506
2023-04-15T09:16:56.106Z,74.4992
2023-04-15T09:17:56.715Z,73.8928
2023-04-15T09:18:57.326Z,74.2472
2023-04-15T09:19:57.908Z,75.2157
2023-04-15T09:20:58.490Z,74.1142
2023-04-15T09:21:59.414Z,74.1159
2023-04-15T09:23:00.440Z,74.5655
2023-04-15T09:24:01.403Z,74.0718
2023-04-15T09:25:02.437Z,72.8567
2023-04-15T09:26:03.052Z,73.4901
2023-04-15T09:27:03.680Z,73.4008
2023-04-15T09:28:04.494Z,72.2376
2023-04-15T09:29:05.101Z,72.2238
2023-04-15T09:30:05.668Z,71.1811
2023-04-15T09:31:06.283Z,70.6937
2023-04-15T09:32:06.869Z,71.4601
2023-04-15T09:33:07.511Z,70.4650
2023-04-15T09:34:08.056Z,69.5624
2023-04-15T09:35:08.893Z,68.7414
2023-04-15T09:36:09.587Z,67.1565
2023-04-15T09:37:10.543Z,67.3892
2023-04-15T09:38:11.113Z,67.0857
2023-04-15T09:39:11.680Z,68.5625
2023-04-15T09:40:12.269Z,68.9072
2023-04-15T09:41:12.842Z,69.1498
2023-04-15T09:42:13.427Z,69.1012
2023-04-15T09:43:14.032Z,66.7811
2023-04-15T09:44:14.582Z,66.4797
2023-04-15T09:45:15.200Z,66.7120
2023-04-15T09:46:15.793Z,66.6166
2023-04-15T09:47:16.672Z,66.6044
2023-04-15T09:48:17.299Z,65.6691
2023-04-15T09:49:17.973Z,67.2046
2023-04-15T09:50:18.551Z,67.2594
2023-04-15T09:51:19.213Z,67.1373
2023-04-15T09:52:19.794Z,67.2984
2023-04-15T09:53:20.387Z,66.3597
2023-04-15T09:54:20.974Z,65.1559
2023-04-15T09:55:21.552Z,64.4774
2023-04-15T09:56:22.138Z,61.0258
2023-04-15T09:57:22.693Z,62.8114
2023-04-15T09:58:23.278Z,65.3436
2023-04-15T09:59:23.844Z,63.1736
2023-04-15T10:00:24.985Z,61.3717
2023-04-15T10:01:25.565Z,62.2544
2023-04-15T10:02:26.287Z,63.9831
2023-04-15T10:03:27.000Z,62.2670
2023-04-15T10:04:27.958Z,62.3216
2023-04-15T10:05:29.775Z,63.1067
2023-04-15T10:06:30.777Z,65.0568
2023-04-15T10:07:31.349Z,67.1327
2023-04-15T10:08:31.958Z,66.5044
2023-04-15T10:09:32.553Z,64.5207
2023-04-15T10:10:33.133Z,65.6724
2023-04-15T10:11:33.692Z,65.4974
2023-04-15T10:12:34.315Z,66.0976
2023-04-15T10:13:34.877Z,67.9038
2023-04-15T10:14:35.506Z,67.3741
2023-04-15T10:15:36.090Z,66.6599
2023-04-15T10:16:36.634Z,66.8162
2023-04-15T10:17:37.461Z,66.4320
2023-04-15T10:18:38.150Z,67.2216
2023-04-15T10:19:38.771Z,66.8391
2023-04-15T10:20:39.365Z,66.6734
2023-04-15T10:21:39.949Z,67.0459
2023-04-15T10:22:40.757Z,67.8524
2023-04-15T10:23:41.280Z,69.1565
2023-04-15T10:25:44.935Z,69.2924
2023-04-15T10:26:45.556Z,69.1891
2023-04-15T10:27:46.122Z,69.4404
2023-04-15T10:28:46.710Z,67.9987
2023-04-15T10:29:47.299Z,69.1395
2023-04-15T10:30:47.880Z,70.1551
2023-04-15T10:31:48.576Z,72.2697
2023-04-15T10:32:49.169Z,70.6730
2023-04-15T10:33:49.733Z,70.4128
2023-04-15T10:34:51.071Z,69.9919
2023-04-15T10:35:52.414Z,71.0023
2023-04-15T10:36:52.978Z,71.4357
2023-04-15T10:37:53.552Z,70.8315
2023-04-15T10:38:54.132Z,71.5930
2023-04-15T10:39:54.910Z,72.3628
2023-04-15T10:40:55.514Z,72.5612
2023-04-15T10:41:56.167Z,71.6846
2023-04-15T10:42:56.725Z,71.1874
2023-04-15T10:43:57.295Z,71.0281
2023-04-15T10:44:57.868Z,70.4934
2023-04-15T10:45:58.445Z,70.6769
2023-04-15T10:46:59.277Z,71.2037
2023-04-15T10:48:01.596Z,69.6806
2023-04-15T10:49:00.359Z,69.1795
2023-04-15T10:50:00.985Z,72.9763
2023-04-15T10:51:01.591Z,74.5737
2023-04-15T10:52:02.167Z,76.6972
2023-04-15T10:53:02.726Z,77.0488
2023-04-15T10:54:03.536Z,77.4254
2023-04-15T10:55:04.114Z,77.5024
2023-04-15T10:56:04.682Z,76.3096
2023-04-15T10:57:05.250Z,77.0202
2023-04-15T10:58:05.866Z,76.9257
2023-04-15T10:59:06.431Z,76.2764
2023-04-15T11:00:07.001Z,74.4073
2023-04-15T11:01:07.616Z,73.5685
2023-04-15T11:02:08.479Z,72.9763
2023-04-15T11:03:09.518Z,73.5081
2023-04-15T11:04:10.543Z,73.7732
2023-04-15T11:05:11.097Z,76.0195
2023-04-15T11:06:11.669Z,75.9058
2023-04-15T11:07:12.257Z,75.5000
2023-04-15T11:08:12.868Z,73.8204
2023-04-15T11:09:13.690Z,74.6978
2023-04-15T11:10:14.279Z,74.2242
2023-04-15T11:11:14.831Z,72.3180
2023-04-15T11:12:15.445Z,71.8979
2023-04-15T11:13:16.062Z,72.4398
2023-04-15T11:14:16.632Z,73.2293
2023-04-15T11:15:17.199Z,72.9589
2023-04-15T11:16:17.820Z,71.7398
2023-04-15T11:17:18.698Z,71.3657
2023-04-15T11:18:19.297Z,72.2644
2023-04-15T11:19:19.908Z,71.5450
2023-04-15T11:20:20.499Z,74.4024
2023-04-15T11:21:21.088Z,75.4225
2023-04-15T11:22:21.666Z,76.1599
2023-04-15T11:23:22.534Z,75.3812
2023-04-15T11:24:23.318Z,75.2870
2023-04-15T11:25:24.043Z,75.3022
2023-04-15T11:26:24.697Z,75.9365
2023-04-15T11:27:25.293Z,77.6806
2023-04-15T11:28:25.856Z,77.7184
2023-04-15T11:29:26.465Z,77.5753
2023-04-15T11:30:27.080Z,78.0163
2023-04-15T11:31:27.701Z,76.9004
2023-04-15T11:32:28.282Z,76.0186
2023-04-15T11:33:28.911Z,76.8801
2023-04-15T11:34:29.493Z,78.1239
2023-04-15T11:35:30.084Z,78.0669
2023-04-15T11:36:30.645Z,78.4379
2023-04-15T11:37:31.252Z,78.0479
2023-04-15T11:38:31.834Z,78.0330
2023-04-15T11:39:32.429Z,77.8751
2023-04-15T11:40:32.980Z,78.1718
2023-04-15T11:41:33.579Z,77.9514
2023-04-15T11:42:48.741Z,77.6343
2023-04-15T11:43:37.148Z,77.9876
2023-04-15T11:44:37.735Z,77.8148
2023-04-15T11:45:38.340Z,77.9354
2023-04-15T11:46:38.912Z,77.5653
2023-04-15T11:47:39.509Z,78.2334
2023-04-15T11:48:40.113Z,78.6145
2023-04-15T11:49:40.953Z,78.7903
2023-04-15T11:50:41.559Z,78.9965
2023-04-15T11:51:42.099Z,78.9737
2023-04-15T11:52:42.656Z,79.3359
2023-04-15T11:53:43.281Z,80.0470
2023-04-15T11:54:43.873Z,78.3967
2023-04-15T11:55:44.683Z,76.3331
2023-04-15T11:56:45.244Z,74.8168
2023-04-15T11:57:45.839Z,73.1070
2023-04-15T11:58:46.572Z,73.5121
2023-04-15T11:59:47.220Z,75.8902
2023-04-15T12:00:47.878Z,75.3104
2023-04-15T12:01:48.711Z,76.0161
2023-04-15T12:02:49.360Z,76.6999
2023-04-15T12:03:50.545Z,77.1735
2023-04-15T12:04:51.360Z,75.8603
2023-04-15T12:05:51.976Z,75.3027
2023-04-15T12:06:52.585Z,74.7995
2023-04-15T12:07:53.210Z,74.3486
2023-04-15T12:08:53.816Z,74.2154
2023-04-15T12:09:54.443Z,72.1885
2023-04-15T12:10:55.070Z,70.2496
2023-04-15T12:11:55.664Z,69.4578
2023-04-15T12:12:56.284Z,72.7509
2023-04-15T12:13:56.885Z,75.0931
2023-04-15T12:14:57.541Z,75.0155
2023-04-15T12:15:58.186Z,74.9348
2023-04-15T12:16:58.813Z,74.6682
2023-04-15T12:17:59.743Z,74.0790
2023-04-15T12:19:02.342Z,74.7689
2023-04-15T12:20:02.993Z,73.7270
2023-04-15T12:21:03.587Z,73.7886
2023-04-15T12:22:04.212Z,72.2326